sensor_id;sensor_type;location;lat;lon;timestamp;pressure;altitude;pressure_sealevel;temperature
27826;BMP280;15077;49.704;9.908;2024-01-10T00:01:18;99134.66;;;0.18
27826;BMP280;15077;49.704;9.908;2024-01-10T00:03:46;99135.41;;;0.12
27826;BMP280;15077;49.704;9.908;2024-01-10T00:06:12;99129.50;;;0.07
27826;BMP280;15077;49.704;9.908;2024-01-10T00:08:38;99131.94;;;0.04
27826;BMP280;15077;49.704;9.908;2024-01-10T00:11:04;99132.75;;;0.03
27826;BMP280;15077;49.704;9.908;2024-01-10T00:13:33;99127.75;;;0.02
27826;BMP280;15077;49.704;9.908;2024-01-10T00:15:58;99126.06;;;0.02
27826;BMP280;15077;49.704;9.908;2024-01-10T00:18:25;99126.91;;;0.01
27826;BMP280;15077;49.704;9.908;2024-01-10T00:20:53;99131.91;;;0.01
27826;BMP280;15077;49.704;9.908;2024-01-10T00:23:20;99132.69;;;0.00
27826;BMP280;15077;49.704;9.908;2024-01-10T00:25:46;99125.19;;;-0.01
27826;BMP280;15077;49.704;9.908;2024-01-10T00:28:12;99128.53;;;-0.01
27826;BMP280;15077;49.704;9.908;2024-01-10T00:30:38;99128.53;;;-0.01
27826;BMP280;15077;49.704;9.908;2024-01-10T00:33:04;99123.53;;;-0.01
27826;BMP280;15077;49.704;9.908;2024-01-10T00:35:31;99121.00;;;-0.02
27826;BMP280;15077;49.704;9.908;2024-01-10T00:37:57;99123.50;;;-0.02
27826;BMP280;15077;49.704;9.908;2024-01-10T00:40:23;99126.84;;;-0.02
27826;BMP280;15077;49.704;9.908;2024-01-10T00:42:49;99113.56;;;-0.01
27826;BMP280;15077;49.704;9.908;2024-01-10T00:45:16;99123.53;;;-0.01
27826;BMP280;15077;49.704;9.908;2024-01-10T00:47:41;99112.75;;;-0.01
27826;BMP280;15077;49.704;9.908;2024-01-10T00:50:07;99111.03;;;-0.02
27826;BMP280;15077;49.704;9.908;2024-01-10T00:52:33;99120.19;;;-0.02
27826;BMP280;15077;49.704;9.908;2024-01-10T00:54:58;99114.34;;;-0.03
27826;BMP280;15077;49.704;9.908;2024-01-10T00:57:24;99111.84;;;-0.03
27826;BMP280;15077;49.704;9.908;2024-01-10T00:59:50;99116.00;;;-0.03
27826;BMP280;15077;49.704;9.908;2024-01-10T01:02:15;99114.31;;;-0.04
27826;BMP280;15077;49.704;9.908;2024-01-10T01:04:41;99124.31;;;-0.03
27826;BMP280;15077;49.704;9.908;2024-01-10T01:07:07;99121.78;;;-0.04
27826;BMP280;15077;49.704;9.908;2024-01-10T01:09:33;99118.44;;;-0.06
27826;BMP280;15077;49.704;9.908;2024-01-10T01:11:59;99116.75;;;-0.07
27826;BMP280;15077;49.704;9.908;2024-01-10T01:14:24;99120.13;;;-0.07
27826;BMP280;15077;49.704;9.908;2024-01-10T01:16:58;99126.72;;;-0.07
27826;BMP280;15077;49.704;9.908;2024-01-10T01:19:23;99120.06;;;-0.10
27826;BMP280;15077;49.704;9.908;2024-01-10T01:21:49;99124.19;;;-0.10
27826;BMP280;15077;49.704;9.908;2024-01-10T01:24:14;99118.34;;;-0.12
27826;BMP280;15077;49.704;9.908;2024-01-10T01:26:40;99124.13;;;-0.13
27826;BMP280;15077;49.704;9.908;2024-01-10T01:29:06;99119.97;;;-0.14
27826;BMP280;15077;49.704;9.908;2024-01-10T01:31:31;99118.28;;;-0.15
27826;BMP280;15077;49.704;9.908;2024-01-10T01:33:57;99114.09;;;-0.18
27826;BMP280;15077;49.704;9.908;2024-01-10T01:36:23;99109.97;;;-0.17
27826;BMP280;15077;49.704;9.908;2024-01-10T01:38:48;99108.28;;;-0.18
27826;BMP280;15077;49.704;9.908;2024-01-10T01:41:14;99104.94;;;-0.20
27826;BMP280;15077;49.704;9.908;2024-01-10T01:43:40;99104.03;;;-0.22
27826;BMP280;15077;49.704;9.908;2024-01-10T01:46:07;99107.38;;;-0.23
27826;BMP280;15077;49.704;9.908;2024-01-10T01:48:33;99108.16;;;-0.24
27826;BMP280;15077;49.704;9.908;2024-01-10T01:51:05;99104.81;;;-0.26
27826;BMP280;15077;49.704;9.908;2024-01-10T01:53:31;99106.47;;;-0.25
27826;BMP280;15077;49.704;9.908;2024-01-10T01:56:00;99101.50;;;-0.25
27826;BMP280;15077;49.704;9.908;2024-01-10T01:58:29;99105.69;;;-0.24
27826;BMP280;15077;49.704;9.908;2024-01-10T02:00:55;99099.00;;;-0.25
27826;BMP280;15077;49.704;9.908;2024-01-10T02:03:21;99103.19;;;-0.24
27826;BMP280;15077;49.704;9.908;2024-01-10T02:05:47;99101.50;;;-0.25
27826;BMP280;15077;49.704;9.908;2024-01-10T02:08:17;99105.69;;;-0.24
27826;BMP280;15077;49.704;9.908;2024-01-10T02:10:46;99104.00;;;-0.25
27826;BMP280;15077;49.704;9.908;2024-01-10T02:13:12;99110.66;;;-0.24
27826;BMP280;15077;49.704;9.908;2024-01-10T02:15:38;99104.00;;;-0.25
27826;BMP280;15077;49.704;9.908;2024-01-10T02:18:04;99100.69;;;-0.26
27826;BMP280;15077;49.704;9.908;2024-01-10T02:20:35;99100.69;;;-0.24
27826;BMP280;15077;49.704;9.908;2024-01-10T02:23:01;99103.19;;;-0.24
27826;BMP280;15077;49.704;9.908;2024-01-10T02:25:27;99091.59;;;-0.22
27826;BMP280;15077;49.704;9.908;2024-01-10T02:27:52;99090.81;;;-0.20
27826;BMP280;15077;49.704;9.908;2024-01-10T02:30:18;99094.13;;;-0.19
27826;BMP280;15077;49.704;9.908;2024-01-10T02:32:43;99083.38;;;-0.17
27826;BMP280;15077;49.704;9.908;2024-01-10T02:35:09;99080.13;;;-0.14
27826;BMP280;15077;49.704;9.908;2024-01-10T02:37:35;99081.78;;;-0.13
27826;BMP280;15077;49.704;9.908;2024-01-10T02:40:01;99090.13;;;-0.11
27826;BMP280;15077;49.704;9.908;2024-01-10T02:42:27;99079.31;;;-0.12
27826;BMP280;15077;49.704;9.908;2024-01-10T02:44:53;99077.69;;;-0.10
27826;BMP280;15077;49.704;9.908;2024-01-10T02:47:19;99074.34;;;-0.10
27826;BMP280;15077;49.704;9.908;2024-01-10T02:49:44;99071.84;;;-0.10
27826;BMP280;15077;49.704;9.908;2024-01-10T02:52:10;99087.69;;;-0.08
27826;BMP280;15077;49.704;9.908;2024-01-10T02:54:36;99081.88;;;-0.07
27826;BMP280;15077;49.704;9.908;2024-01-10T02:57:01;99090.22;;;-0.05
27826;BMP280;15077;49.704;9.908;2024-01-10T02:59:27;99090.28;;;-0.02
27826;BMP280;15077;49.704;9.908;2024-01-10T03:01:52;99084.53;;;0.00
27826;BMP280;15077;49.704;9.908;2024-01-10T03:04:18;99085.41;;;0.03
27826;BMP280;15077;49.704;9.908;2024-01-10T03:06:43;99082.97;;;0.08
27826;BMP280;15077;49.704;9.908;2024-01-10T03:09:09;99083.00;;;0.09
27826;BMP280;15077;49.704;9.908;2024-01-10T03:11:35;99083.03;;;0.12
27826;BMP280;15077;49.704;9.908;2024-01-10T03:14:11;99084.75;;;0.15
27826;BMP280;15077;49.704;9.908;2024-01-10T03:16:37;99083.13;;;0.17
27826;BMP280;15077;49.704;9.908;2024-01-10T03:19:03;99078.16;;;0.18
27826;BMP280;15077;49.704;9.908;2024-01-10T03:21:29;99080.69;;;0.21
27826;BMP280;15077;49.704;9.908;2024-01-10T03:23:56;99084.03;;;0.23
27826;BMP280;15077;49.704;9.908;2024-01-10T03:26:22;99082.41;;;0.24
27826;BMP280;15077;49.704;9.908;2024-01-10T03:28:48;99077.41;;;0.24
27826;BMP280;15077;49.704;9.908;2024-01-10T03:31:14;99075.75;;;0.24
27826;BMP280;15077;49.704;9.908;2024-01-10T03:33:40;99069.97;;;0.25
27826;BMP280;15077;49.704;9.908;2024-01-10T03:36:07;99069.13;;;0.26
27826;BMP280;15077;49.704;9.908;2024-01-10T03:38:34;99065.00;;;0.27
27826;BMP280;15077;49.704;9.908;2024-01-10T03:40:59;99070.00;;;0.28
27826;BMP280;15077;49.704;9.908;2024-01-10T03:43:25;99071.63;;;0.28
27826;BMP280;15077;49.704;9.908;2024-01-10T03:45:50;99062.53;;;0.28
27826;BMP280;15077;49.704;9.908;2024-01-10T03:48:16;99061.66;;;0.28
27826;BMP280;15077;49.704;9.908;2024-01-10T03:50:42;99063.31;;;0.27
27826;BMP280;15077;49.704;9.908;2024-01-10T03:53:07;99066.66;;;0.28
27826;BMP280;15077;49.704;9.908;2024-01-10T03:55:33;99070.00;;;0.28
27826;BMP280;15077;49.704;9.908;2024-01-10T03:57:59;99061.66;;;0.28
27826;BMP280;15077;49.704;9.908;2024-01-10T04:00:24;99051.69;;;0.28
27826;BMP280;15077;49.704;9.908;2024-01-10T04:02:52;99055.03;;;0.28
27826;BMP280;15077;49.704;9.908;2024-01-10T04:05:18;99052.56;;;0.28
27826;BMP280;15077;49.704;9.908;2024-01-10T04:07:45;99055.03;;;0.28
27826;BMP280;15077;49.704;9.908;2024-01-10T04:10:11;99050.06;;;0.28
27826;BMP280;15077;49.704;9.908;2024-01-10T04:12:45;99050.88;;;0.27
27826;BMP280;15077;49.704;9.908;2024-01-10T04:15:11;99050.00;;;0.25
27826;BMP280;15077;49.704;9.908;2024-01-10T04:17:37;99044.16;;;0.23
27826;BMP280;15077;49.704;9.908;2024-01-10T04:20:04;99055.78;;;0.23
27826;BMP280;15077;49.704;9.908;2024-01-10T04:22:30;99044.94;;;0.19
27826;BMP280;15077;49.704;9.908;2024-01-10T04:24:58;99052.41;;;0.19
27826;BMP280;15077;49.704;9.908;2024-01-10T04:27:24;99056.56;;;0.20
27826;BMP280;15077;49.704;9.908;2024-01-10T04:29:50;99047.44;;;0.19
27826;BMP280;15077;49.704;9.908;2024-01-10T04:32:15;99047.44;;;0.19
27826;BMP280;15077;49.704;9.908;2024-01-10T04:34:41;99045.72;;;0.17
27826;BMP280;15077;49.704;9.908;2024-01-10T04:37:06;99052.38;;;0.16
27826;BMP280;15077;49.704;9.908;2024-01-10T04:39:33;99049.84;;;0.15
27826;BMP280;15077;49.704;9.908;2024-01-10T04:41:59;99044.00;;;0.14
27826;BMP280;15077;49.704;9.908;2024-01-10T04:44:25;99044.88;;;0.15
27826;BMP280;15077;49.704;9.908;2024-01-10T04:46:50;99047.34;;;0.13
27826;BMP280;15077;49.704;9.908;2024-01-10T04:49:17;99053.16;;;0.14
27826;BMP280;15077;49.704;9.908;2024-01-10T04:51:43;99045.66;;;0.12
27826;BMP280;15077;49.704;9.908;2024-01-10T04:54:09;99047.31;;;0.12
27826;BMP280;15077;49.704;9.908;2024-01-10T04:56:35;99038.97;;;0.11
27826;BMP280;15077;49.704;9.908;2024-01-10T04:59:04;99043.13;;;0.11
27826;BMP280;15077;49.704;9.908;2024-01-10T05:01:30;99051.41;;;0.10
27826;BMP280;15077;49.704;9.908;2024-01-10T05:03:55;99050.59;;;0.09
27826;BMP280;15077;49.704;9.908;2024-01-10T05:06:21;99049.75;;;0.09
27826;BMP280;15077;49.704;9.908;2024-01-10T05:08:47;99052.25;;;0.09
27826;BMP280;15077;49.704;9.908;2024-01-10T05:11:15;99054.72;;;0.07
27826;BMP280;15077;49.704;9.908;2024-01-10T05:13:41;99058.88;;;0.08
27826;BMP280;15077;49.704;9.908;2024-01-10T05:16:07;99058.84;;;0.07
27826;BMP280;15077;49.704;9.908;2024-01-10T05:18:33;99057.22;;;0.07
27826;BMP280;15077;49.704;9.908;2024-01-10T05:20:59;99060.53;;;0.06
27826;BMP280;15077;49.704;9.908;2024-01-10T05:23:25;99048.88;;;0.05
27826;BMP280;15077;49.704;9.908;2024-01-10T05:25:51;99064.66;;;0.04
27826;BMP280;15077;49.704;9.908;2024-01-10T05:28:16;99054.66;;;0.03
27826;BMP280;15077;49.704;9.908;2024-01-10T05:30:43;99059.66;;;0.03
27826;BMP280;15077;49.704;9.908;2024-01-10T05:33:09;99057.97;;;0.02
27826;BMP280;15077;49.704;9.908;2024-01-10T05:35:34;99062.13;;;0.01
27826;BMP280;15077;49.704;9.908;2024-01-10T05:38:01;99058.72;;;-0.01
27826;BMP280;15077;49.704;9.908;2024-01-10T05:40:28;99063.72;;;-0.01
27826;BMP280;15077;49.704;9.908;2024-01-10T05:42:56;99065.38;;;-0.01
27826;BMP280;15077;49.704;9.908;2024-01-10T05:45:22;99072.88;;;-0.01
27826;BMP280;15077;49.704;9.908;2024-01-10T05:47:47;99063.69;;;-0.02
27826;BMP280;15077;49.704;9.908;2024-01-10T05:50:16;99064.50;;;-0.03
27826;BMP280;15077;49.704;9.908;2024-01-10T05:52:42;99064.47;;;-0.04
27826;BMP280;15077;49.704;9.908;2024-01-10T05:55:09;99062.81;;;-0.05
27826;BMP280;15077;49.704;9.908;2024-01-10T05:57:36;99060.31;;;-0.07
27826;BMP280;15077;49.704;9.908;2024-01-10T06:00:02;99062.78;;;-0.08
27826;BMP280;15077;49.704;9.908;2024-01-10T06:02:28;99059.41;;;-0.09
27826;BMP280;15077;49.704;9.908;2024-01-10T06:04:54;99061.88;;;-0.10
27826;BMP280;15077;49.704;9.908;2024-01-10T06:07:19;99066.88;;;-0.10
27826;BMP280;15077;49.704;9.908;2024-01-10T06:09:46;99065.22;;;-0.11
27826;BMP280;15077;49.704;9.908;2024-01-10T06:12:12;99068.50;;;-0.12
27826;BMP280;15077;49.704;9.908;2024-01-10T06:14:38;99069.34;;;-0.12
27826;BMP280;15077;49.704;9.908;2024-01-10T06:17:04;99063.53;;;-0.12
27826;BMP280;15077;49.704;9.908;2024-01-10T06:19:30;99067.66;;;-0.14
27826;BMP280;15077;49.704;9.908;2024-01-10T06:21:59;99069.25;;;-0.16
27826;BMP280;15077;49.704;9.908;2024-01-10T06:24:26;99065.13;;;-0.17
27826;BMP280;15077;49.704;9.908;2024-01-10T06:26:52;99062.59;;;-0.19
27826;BMP280;15077;49.704;9.908;2024-01-10T06:29:18;99067.59;;;-0.19
27826;BMP280;15077;49.704;9.908;2024-01-10T06:31:44;99075.88;;;-0.20
27826;BMP280;15077;49.704;9.908;2024-01-10T06:34:10;99075.03;;;-0.20
27826;BMP280;15077;49.704;9.908;2024-01-10T06:36:35;99082.47;;;-0.22
27826;BMP280;15077;49.704;9.908;2024-01-10T06:39:01;99081.63;;;-0.22
27826;BMP280;15077;49.704;9.908;2024-01-10T06:41:27;99079.97;;;-0.23
27826;BMP280;15077;49.704;9.908;2024-01-10T06:43:53;99072.50;;;-0.23
27826;BMP280;15077;49.704;9.908;2024-01-10T06:46:19;99068.31;;;-0.24
27826;BMP280;15077;49.704;9.908;2024-01-10T06:48:46;99076.59;;;-0.25
27826;BMP280;15077;49.704;9.908;2024-01-10T06:51:15;99075.75;;;-0.27
27826;BMP280;15077;49.704;9.908;2024-01-10T06:53:41;99078.22;;;-0.27
27826;BMP280;15077;49.704;9.908;2024-01-10T06:56:07;99072.41;;;-0.28
27826;BMP280;15077;49.704;9.908;2024-01-10T06:58:35;99074.03;;;-0.28
27826;BMP280;15077;49.704;9.908;2024-01-10T07:01:00;99071.56;;;-0.28
27826;BMP280;15077;49.704;9.908;2024-01-10T07:03:26;99074.88;;;-0.29
27826;BMP280;15077;49.704;9.908;2024-01-10T07:05:52;99087.31;;;-0.31
27826;BMP280;15077;49.704;9.908;2024-01-10T07:08:18;99093.91;;;-0.33
27826;BMP280;15077;49.704;9.908;2024-01-10T07:10:43;99091.41;;;-0.33
27826;BMP280;15077;49.704;9.908;2024-01-10T07:13:10;99088.09;;;-0.33
27826;BMP280;15077;49.704;9.908;2024-01-10T07:15:36;99099.75;;;-0.32
27826;BMP280;15077;49.704;9.908;2024-01-10T07:18:02;99091.38;;;-0.34
27826;BMP280;15077;49.704;9.908;2024-01-10T07:20:28;99093.88;;;-0.34
27826;BMP280;15077;49.704;9.908;2024-01-10T07:22:54;99095.53;;;-0.35
27826;BMP280;15077;49.704;9.908;2024-01-10T07:25:20;99099.69;;;-0.35
27826;BMP280;15077;49.704;9.908;2024-01-10T07:27:47;99107.16;;;-0.35
27826;BMP280;15077;49.704;9.908;2024-01-10T07:30:13;99103.84;;;-0.34
27826;BMP280;15077;49.704;9.908;2024-01-10T07:32:40;99099.69;;;-0.35
27826;BMP280;15077;49.704;9.908;2024-01-10T07:35:06;99095.53;;;-0.35
27826;BMP280;15077;49.704;9.908;2024-01-10T07:37:38;99106.31;;;-0.34
27826;BMP280;15077;49.704;9.908;2024-01-10T07:40:05;99105.47;;;-0.36
27826;BMP280;15077;49.704;9.908;2024-01-10T07:42:37;99105.50;;;-0.35
27826;BMP280;15077;49.704;9.908;2024-01-10T07:45:03;99111.31;;;-0.34
27826;BMP280;15077;49.704;9.908;2024-01-10T07:47:33;99117.13;;;-0.35
27826;BMP280;15077;49.704;9.908;2024-01-10T07:50:08;99116.28;;;-0.34
27826;BMP280;15077;49.704;9.908;2024-01-10T07:52:34;99117.97;;;-0.33
27826;BMP280;15077;49.704;9.908;2024-01-10T07:55:00;99117.97;;;-0.33
27826;BMP280;15077;49.704;9.908;2024-01-10T07:57:26;99117.16;;;-0.34
27826;BMP280;15077;49.704;9.908;2024-01-10T07:59:53;99123.78;;;-0.33
27826;BMP280;15077;49.704;9.908;2024-01-10T08:02:18;99127.13;;;-0.32
27826;BMP280;15077;49.704;9.908;2024-01-10T08:04:44;99124.69;;;-0.31
27826;BMP280;15077;49.704;9.908;2024-01-10T08:07:10;99125.53;;;-0.29
27826;BMP280;15077;49.704;9.908;2024-01-10T08:09:36;99128.84;;;-0.28
27826;BMP280;15077;49.704;9.908;2024-01-10T08:12:03;99128.06;;;-0.27
27826;BMP280;15077;49.704;9.908;2024-01-10T08:14:29;99122.25;;;-0.26
27826;BMP280;15077;49.704;9.908;2024-01-10T08:16:54;99120.59;;;-0.26
27826;BMP280;15077;49.704;9.908;2024-01-10T08:19:26;99125.63;;;-0.24
27826;BMP280;15077;49.704;9.908;2024-01-10T08:21:53;99128.09;;;-0.24
27826;BMP280;15077;49.704;9.908;2024-01-10T08:24:19;99128.13;;;-0.23
27826;BMP280;15077;49.704;9.908;2024-01-10T08:26:46;99125.63;;;-0.23
27826;BMP280;15077;49.704;9.908;2024-01-10T08:29:11;99128.16;;;-0.21
27826;BMP280;15077;49.704;9.908;2024-01-10T08:31:37;99126.53;;;-0.19
27826;BMP280;15077;49.704;9.908;2024-01-10T08:34:04;99124.91;;;-0.17
27826;BMP280;15077;49.704;9.908;2024-01-10T08:36:30;99128.25;;;-0.15
27826;BMP280;15077;49.704;9.908;2024-01-10T08:38:55;99129.84;;;-0.20
27826;BMP280;15077;49.704;9.908;2024-01-10T08:41:21;99133.06;;;-0.26
27826;BMP280;15077;49.704;9.908;2024-01-10T08:43:47;99127.22;;;-0.28
27826;BMP280;15077;49.704;9.908;2024-01-10T08:46:12;99138.00;;;-0.29
27826;BMP280;15077;49.704;9.908;2024-01-10T08:48:38;99131.31;;;-0.30
27826;BMP280;15077;49.704;9.908;2024-01-10T08:51:04;99135.50;;;-0.29
27826;BMP280;15077;49.704;9.908;2024-01-10T08:53:30;99135.56;;;-0.26
27826;BMP280;15077;49.704;9.908;2024-01-10T08:55:55;99138.06;;;-0.24
27826;BMP280;15077;49.704;9.908;2024-01-10T08:58:21;99135.66;;;-0.20
27826;BMP280;15077;49.704;9.908;2024-01-10T09:00:47;99134.03;;;-0.18
27826;BMP280;15077;49.704;9.908;2024-01-10T09:03:13;99142.47;;;-0.11
27826;BMP280;15077;49.704;9.908;2024-01-10T09:05:38;99133.41;;;-0.06
27826;BMP280;15077;49.704;9.908;2024-01-10T09:08:04;99141.84;;;0.00
27826;BMP280;15077;49.704;9.908;2024-01-10T09:10:30;99137.78;;;0.06
27826;BMP280;15077;49.704;9.908;2024-01-10T09:12:58;99142.06;;;0.13
27826;BMP280;15077;49.704;9.908;2024-01-10T09:15:23;99145.47;;;0.18
27826;BMP280;15077;49.704;9.908;2024-01-10T09:17:50;99150.53;;;0.23
27826;BMP280;15077;49.704;9.908;2024-01-10T09:20:17;99151.44;;;0.28
27826;BMP280;15077;49.704;9.908;2024-01-10T09:22:43;99154.00;;;0.32
27826;BMP280;15077;49.704;9.908;2024-01-10T09:25:09;99147.44;;;0.37
27826;BMP280;15077;49.704;9.908;2024-01-10T09:27:39;99154.19;;;0.44
27826;BMP280;15077;49.704;9.908;2024-01-10T09:30:09;99156.78;;;0.48
27826;BMP280;15077;49.704;9.908;2024-01-10T09:32:35;99157.69;;;0.55
27826;BMP280;15077;49.704;9.908;2024-01-10T09:35:02;99153.56;;;0.58
27826;BMP280;15077;49.704;9.908;2024-01-10T09:37:28;99156.13;;;0.63
27826;BMP280;15077;49.704;9.908;2024-01-10T09:39:54;99162.03;;;0.66
27826;BMP280;15077;49.704;9.908;2024-01-10T09:42:20;99163.75;;;0.70
27826;BMP280;15077;49.704;9.908;2024-01-10T09:44:51;99153.81;;;0.73
27826;BMP280;15077;49.704;9.908;2024-01-10T09:47:18;99159.69;;;0.77
27826;BMP280;15077;49.704;9.908;2024-01-10T09:49:45;99163.03;;;0.79
27826;BMP280;15077;49.704;9.908;2024-01-10T09:52:24;99173.91;;;0.82
27826;BMP280;15077;49.704;9.908;2024-01-10T09:54:54;99165.69;;;0.89
27826;BMP280;15077;49.704;9.908;2024-01-10T09:57:19;99167.50;;;0.99
27826;BMP280;15077;49.704;9.908;2024-01-10T09:59:47;99170.91;;;1.07
27826;BMP280;15077;49.704;9.908;2024-01-10T10:02:15;99166.88;;;1.13
27826;BMP280;15077;49.704;9.908;2024-01-10T10:04:50;99163.59;;;1.19
27826;BMP280;15077;49.704;9.908;2024-01-10T10:07:19;99154.50;;;1.22
27826;BMP280;15077;49.704;9.908;2024-01-10T10:09:44;99161.25;;;1.31
27826;BMP280;15077;49.704;9.908;2024-01-10T10:12:10;99159.69;;;1.37
27826;BMP280;15077;49.704;9.908;2024-01-10T10:14:35;99154.78;;;1.44
27826;BMP280;15077;49.704;9.908;2024-01-10T10:17:17;99156.53;;;1.51
27826;BMP280;15077;49.704;9.908;2024-01-10T10:19:43;99147.47;;;1.61
27826;BMP280;15077;49.704;9.908;2024-01-10T10:22:10;99153.44;;;1.76
27826;BMP280;15077;49.704;9.908;2024-01-10T10:24:37;99151.97;;;1.94
27826;BMP280;15077;49.704;9.908;2024-01-10T10:27:09;99148.03;;;2.20
27826;BMP280;15077;49.704;9.908;2024-01-10T10:29:36;99146.63;;;2.49
27826;BMP280;15077;49.704;9.908;2024-01-10T10:32:05;99152.69;;;2.79
27826;BMP280;15077;49.704;9.908;2024-01-10T10:34:31;99144.50;;;3.07
27826;BMP280;15077;49.704;9.908;2024-01-10T10:36:58;99142.16;;;3.35
27826;BMP280;15077;49.704;9.908;2024-01-10T10:39:24;99148.88;;;3.55
27826;BMP280;15077;49.704;9.908;2024-01-10T10:41:51;99147.28;;;3.74
27826;BMP280;15077;49.704;9.908;2024-01-10T10:44:22;99145.66;;;3.96
27826;BMP280;15077;49.704;9.908;2024-01-10T10:46:52;99141.50;;;4.13
27826;BMP280;15077;49.704;9.908;2024-01-10T10:49:23;99145.72;;;4.28
27826;BMP280;15077;49.704;9.908;2024-01-10T10:51:51;99149.88;;;4.43
27826;BMP280;15077;49.704;9.908;2024-01-10T10:54:18;99134.81;;;4.57
27826;BMP280;15077;49.704;9.908;2024-01-10T10:56:44;99138.16;;;4.71
27826;BMP280;15077;49.704;9.908;2024-01-10T10:59:12;99128.09;;;4.82
27826;BMP280;15077;49.704;9.908;2024-01-10T11:01:39;99127.22;;;4.97
27826;BMP280;15077;49.704;9.908;2024-01-10T11:04:05;99123.00;;;5.09
27826;BMP280;15077;49.704;9.908;2024-01-10T11:06:32;99112.91;;;5.21
27826;BMP280;15077;49.704;9.908;2024-01-10T11:09:04;99120.38;;;5.33
27826;BMP280;15077;49.704;9.908;2024-01-10T11:14:38;99115.25;;;5.63
27826;BMP280;15077;49.704;9.908;2024-01-10T11:17:30;99116.84;;;5.78
27826;BMP280;15077;49.704;9.908;2024-01-10T11:25:26;99119.94;;;6.22
27826;BMP280;15077;49.704;9.908;2024-01-10T11:27:56;99108.91;;;6.36
27826;BMP280;15077;49.704;9.908;2024-01-10T11:30:35;99105.44;;;6.49
27826;BMP280;15077;49.704;9.908;2024-01-10T11:33:09;99100.28;;;6.61
27826;BMP280;15077;49.704;9.908;2024-01-10T11:36:06;99105.97;;;6.81
27826;BMP280;15077;49.704;9.908;2024-01-10T11:41:10;99095.53;;;7.12
27826;BMP280;15077;49.704;9.908;2024-01-10T11:43:36;99102.13;;;7.25
27826;BMP280;15077;49.704;9.908;2024-01-10T11:46:02;99100.31;;;7.34
27826;BMP280;15077;49.704;9.908;2024-01-10T11:48:31;99090.16;;;7.42
27826;BMP280;15077;49.704;9.908;2024-01-10T11:50:58;99095.13;;;7.48
27826;BMP280;15077;49.704;9.908;2024-01-10T11:53:44;99088.38;;;7.48
27826;BMP280;15077;49.704;9.908;2024-01-10T11:56:16;99101.06;;;7.44
27826;BMP280;15077;49.704;9.908;2024-01-10T11:59:12;99091.03;;;7.38
27826;BMP280;15077;49.704;9.908;2024-01-10T12:01:40;99101.16;;;7.35
27826;BMP280;15077;49.704;9.908;2024-01-10T12:04:06;99087.69;;;7.36
27826;BMP280;15077;49.704;9.908;2024-01-10T12:06:33;99094.38;;;7.38
27826;BMP280;15077;49.704;9.908;2024-01-10T12:08:59;99093.47;;;7.44
27826;BMP280;15077;49.704;9.908;2024-01-10T12:11:28;99103.50;;;7.50
27826;BMP280;15077;49.704;9.908;2024-01-10T12:13:54;99102.59;;;7.54
27826;BMP280;15077;49.704;9.908;2024-01-10T12:16:22;99095.00;;;7.57
27826;BMP280;15077;49.704;9.908;2024-01-10T12:18:48;99097.44;;;7.63
27826;BMP280;15077;49.704;9.908;2024-01-10T12:21:14;99087.25;;;7.70
27826;BMP280;15077;49.704;9.908;2024-01-10T12:23:39;99088.03;;;7.73
27826;BMP280;15077;49.704;9.908;2024-01-10T12:26:08;99085.53;;;7.72
27826;BMP280;15077;49.704;9.908;2024-01-10T12:28:35;99087.22;;;7.73
27826;BMP280;15077;49.704;9.908;2024-01-10T12:31:03;99088.88;;;7.72
27826;BMP280;15077;49.704;9.908;2024-01-10T12:33:28;99078.81;;;7.70
27826;BMP280;15077;49.704;9.908;2024-01-10T12:36:06;99090.59;;;7.71
27826;BMP280;15077;49.704;9.908;2024-01-10T12:38:32;99087.25;;;7.69
27826;BMP280;15077;49.704;9.908;2024-01-10T12:40:58;99083.03;;;7.71
27826;BMP280;15077;49.704;9.908;2024-01-10T12:43:24;99087.22;;;7.73
27826;BMP280;15077;49.704;9.908;2024-01-10T12:46:23;99083.88;;;7.70
27826;BMP280;15077;49.704;9.908;2024-01-10T12:51:24;99079.88;;;7.57
27826;BMP280;15077;49.704;9.908;2024-01-10T12:53:49;99084.19;;;7.47
27826;BMP280;15077;49.704;9.908;2024-01-10T12:56:15;99079.28;;;7.35
27826;BMP280;15077;49.704;9.908;2024-01-10T12:58:41;99076.97;;;7.19
27826;BMP280;15077;49.704;9.908;2024-01-10T13:01:10;99081.38;;;7.02
27826;BMP280;15077;49.704;9.908;2024-01-10T13:03:38;99095.81;;;6.88
27826;BMP280;15077;49.704;9.908;2024-01-10T13:06:04;99075.78;;;6.75
27826;BMP280;15077;49.704;9.908;2024-01-10T13:08:31;99086.78;;;6.67
27826;BMP280;15077;49.704;9.908;2024-01-10T13:10:59;99082.69;;;6.60
27826;BMP280;15077;49.704;9.908;2024-01-10T13:13:29;99081.91;;;6.49
27826;BMP280;15077;49.704;9.908;2024-01-10T13:15:55;99082.84;;;6.39
27826;BMP280;15077;49.704;9.908;2024-01-10T13:18:21;99087.13;;;6.31
27826;BMP280;15077;49.704;9.908;2024-01-10T13:20:46;99092.19;;;6.25
27826;BMP280;15077;49.704;9.908;2024-01-10T13:23:13;99084.69;;;6.19
27826;BMP280;15077;49.704;9.908;2024-01-10T13:25:41;99086.47;;;6.11
27826;BMP280;15077;49.704;9.908;2024-01-10T13:28:06;99085.63;;;6.06
27826;BMP280;15077;49.704;9.908;2024-01-10T13:30:32;99083.16;;;6.00
27826;BMP280;15077;49.704;9.908;2024-01-10T13:32:58;99080.66;;;5.97
27826;BMP280;15077;49.704;9.908;2024-01-10T13:35:24;99071.47;;;5.93
27826;BMP280;15077;49.704;9.908;2024-01-10T13:37:50;99078.19;;;5.91
27826;BMP280;15077;49.704;9.908;2024-01-10T13:40:16;99074.88;;;5.89
27826;BMP280;15077;49.704;9.908;2024-01-10T13:42:44;99077.38;;;5.89
27826;BMP280;15077;49.704;9.908;2024-01-10T13:45:10;99072.38;;;5.88
27826;BMP280;15077;49.704;9.908;2024-01-10T13:47:37;99077.44;;;5.83
27826;BMP280;15077;49.704;9.908;2024-01-10T13:50:06;99077.47;;;5.72
27826;BMP280;15077;49.704;9.908;2024-01-10T13:52:33;99083.34;;;5.68
27826;BMP280;15077;49.704;9.908;2024-01-10T13:54:59;99084.19;;;5.67
27826;BMP280;15077;49.704;9.908;2024-01-10T13:57:25;99081.66;;;5.71
27826;BMP280;15077;49.704;9.908;2024-01-10T13:59:50;99076.59;;;5.73
27826;BMP280;15077;49.704;9.908;2024-01-10T14:02:16;99079.16;;;5.74
27826;BMP280;15077;49.704;9.908;2024-01-10T14:04:45;99081.63;;;5.73
27826;BMP280;15077;49.704;9.908;2024-01-10T14:07:10;99079.97;;;5.72
27826;BMP280;15077;49.704;9.908;2024-01-10T14:09:36;99080.00;;;5.69
27826;BMP280;15077;49.704;9.908;2024-01-10T14:12:02;99080.84;;;5.66
27826;BMP280;15077;49.704;9.908;2024-01-10T14:14:28;99084.22;;;5.62
27826;BMP280;15077;49.704;9.908;2024-01-10T14:16:53;99081.72;;;5.58
27826;BMP280;15077;49.704;9.908;2024-01-10T14:19:19;99088.47;;;5.56
27826;BMP280;15077;49.704;9.908;2024-01-10T14:21:45;99088.47;;;5.53
27826;BMP280;15077;49.704;9.908;2024-01-10T14:24:13;99099.34;;;5.53
27826;BMP280;15077;49.704;9.908;2024-01-10T14:26:39;99100.22;;;5.54
27826;BMP280;15077;49.704;9.908;2024-01-10T14:29:04;99099.34;;;5.53